sensor_id;sensor_type;location;lat;lon;timestamp;P1;durP1;ratioP1;P2;durP2;ratioP2
20443;SDS011;10381;53.730;10.010;2023-01-08T00:02:12;27.10;;;24.63;;
20443;SDS011;10381;53.730;10.010;2023-01-08T00:06:13;26.90;;;24.50;;
20443;SDS011;10381;53.730;10.010;2023-01-08T00:10:15;28.88;;;26.27;;
20443;SDS011;10381;53.730;10.010;2023-01-08T00:14:16;33.53;;;30.47;;
20443;SDS011;10381;53.730;10.010;2023-01-08T00:18:16;30.30;;;27.63;;
20443;SDS011;10381;53.730;10.010;2023-01-08T00:22:16;32.95;;;30.08;;
20443;SDS011;10381;53.730;10.010;2023-01-08T00:26:17;33.83;;;30.58;;
20443;SDS011;10381;53.730;10.010;2023-01-08T00:30:17;31.33;;;28.50;;
20443;SDS011;10381;53.730;10.010;2023-01-08T00:34:17;32.57;;;29.47;;
20443;SDS011;10381;53.730;10.010;2023-01-08T00:38:17;30.17;;;27.47;;
20443;SDS011;10381;53.730;10.010;2023-01-08T00:42:18;31.47;;;28.57;;
20443;SDS011;10381;53.730;10.010;2023-01-08T00:46:18;31.80;;;28.90;;
20443;SDS011;10381;53.730;10.010;2023-01-08T00:50:18;33.97;;;30.90;;
20443;SDS011;10381;53.730;10.010;2023-01-08T00:54:19;33.20;;;30.37;;
20443;SDS011;10381;53.730;10.010;2023-01-08T00:58:19;32.10;;;29.30;;
20443;SDS011;10381;53.730;10.010;2023-01-08T01:02:19;31.50;;;28.60;;
20443;SDS011;10381;53.730;10.010;2023-01-08T01:06:19;27.10;;;24.53;;
20443;SDS011;10381;53.730;10.010;2023-01-08T01:10:20;29.40;;;26.35;;
20443;SDS011;10381;53.730;10.010;2023-01-08T01:14:20;31.83;;;28.43;;
20443;SDS011;10381;53.730;10.010;2023-01-08T01:18:20;29.00;;;26.10;;
20443;SDS011;10381;53.730;10.010;2023-01-08T01:22:21;25.60;;;22.80;;
20443;SDS011;10381;53.730;10.010;2023-01-08T01:26:21;26.07;;;23.57;;
20443;SDS011;10381;53.730;10.010;2023-01-08T01:30:22;25.83;;;23.38;;
20443;SDS011;10381;53.730;10.010;2023-01-08T01:34:23;25.23;;;22.87;;
20443;SDS011;10381;53.730;10.010;2023-01-08T01:38:23;25.52;;;23.23;;
20443;SDS011;10381;53.730;10.010;2023-01-08T01:42:23;23.17;;;20.87;;
20443;SDS011;10381;53.730;10.010;2023-01-08T01:46:39;24.95;;;22.58;;
20443;SDS011;10381;53.730;10.010;2023-01-08T01:50:43;25.30;;;23.00;;
20443;SDS011;10381;53.730;10.010;2023-01-08T01:54:47;20.83;;;18.83;;
20443;SDS011;10381;53.730;10.010;2023-01-08T01:58:50;22.48;;;20.27;;
20443;SDS011;10381;53.730;10.010;2023-01-08T02:02:50;24.40;;;22.10;;
20443;SDS011;10381;53.730;10.010;2023-01-08T02:06:56;23.30;;;21.15;;
20443;SDS011;10381;53.730;10.010;2023-01-08T02:11:07;24.02;;;21.70;;
20443;SDS011;10381;53.730;10.010;2023-01-08T02:15:26;24.52;;;20.17;;
20443;SDS011;10381;53.730;10.010;2023-01-08T02:27:52;24.08;;;21.65;;
20443;SDS011;10381;53.730;10.010;2023-01-08T02:31:55;23.48;;;21.38;;
20443;SDS011;10381;53.730;10.010;2023-01-08T02:40:53;26.40;;;23.70;;
20443;SDS011;10381;53.730;10.010;2023-01-08T02:49:07;26.95;;;24.35;;
20443;SDS011;10381;53.730;10.010;2023-01-08T02:53:13;30.40;;;27.75;;
20443;SDS011;10381;53.730;10.010;2023-01-08T02:57:17;29.30;;;26.52;;
20443;SDS011;10381;53.730;10.010;2023-01-08T03:01:19;31.17;;;27.95;;
20443;SDS011;10381;53.730;10.010;2023-01-08T03:05:22;32.25;;;29.52;;
20443;SDS011;10381;53.730;10.010;2023-01-08T03:09:25;32.78;;;29.85;;
20443;SDS011;10381;53.730;10.010;2023-01-08T03:13:27;33.47;;;30.58;;
20443;SDS011;10381;53.730;10.010;2023-01-08T03:17:32;34.38;;;31.38;;
20443;SDS011;10381;53.730;10.010;2023-01-08T03:21:37;38.20;;;34.95;;
20443;SDS011;10381;53.730;10.010;2023-01-08T03:25:40;40.63;;;36.83;;
20443;SDS011;10381;53.730;10.010;2023-01-08T03:29:43;42.30;;;38.67;;
20443;SDS011;10381;53.730;10.010;2023-01-08T03:33:47;50.83;;;46.47;;
20443;SDS011;10381;53.730;10.010;2023-01-08T03:37:56;55.33;;;50.47;;
20443;SDS011;10381;53.730;10.010;2023-01-08T03:42:13;56.25;;;51.35;;
20443;SDS011;10381;53.730;10.010;2023-01-08T03:46:18;57.22;;;51.58;;
20443;SDS011;10381;53.730;10.010;2023-01-08T03:50:24;56.92;;;51.90;;
20443;SDS011;10381;53.730;10.010;2023-01-08T03:54:30;54.53;;;49.30;;
20443;SDS011;10381;53.730;10.010;2023-01-08T03:58:33;52.55;;;47.67;;
20443;SDS011;10381;53.730;10.010;2023-01-08T04:02:33;46.87;;;42.80;;
20443;SDS011;10381;53.730;10.010;2023-01-08T04:06:33;41.37;;;37.70;;
20443;SDS011;10381;53.730;10.010;2023-01-08T04:10:33;40.87;;;37.30;;
20443;SDS011;10381;53.730;10.010;2023-01-08T04:14:34;37.63;;;34.33;;
20443;SDS011;10381;53.730;10.010;2023-01-08T04:18:34;33.47;;;30.27;;
20443;SDS011;10381;53.730;10.010;2023-01-08T04:22:34;35.40;;;32.37;;
20443;SDS011;10381;53.730;10.010;2023-01-08T04:26:34;34.88;;;31.80;;
20443;SDS011;10381;53.730;10.010;2023-01-08T04:30:35;35.63;;;32.33;;
20443;SDS011;10381;53.730;10.010;2023-01-08T04:34:36;32.00;;;29.02;;
20443;SDS011;10381;53.730;10.010;2023-01-08T04:38:36;30.57;;;27.80;;
20443;SDS011;10381;53.730;10.010;2023-01-08T04:42:36;31.23;;;28.13;;
20443;SDS011;10381;53.730;10.010;2023-01-08T04:46:36;30.30;;;27.70;;
20443;SDS011;10381;53.730;10.010;2023-01-08T04:50:37;34.03;;;31.07;;
20443;SDS011;10381;53.730;10.010;2023-01-08T04:54:37;33.20;;;29.60;;
20443;SDS011;10381;53.730;10.010;2023-01-08T04:58:37;32.37;;;29.57;;
20443;SDS011;10381;53.730;10.010;2023-01-08T05:02:39;31.15;;;28.35;;
20443;SDS011;10381;53.730;10.010;2023-01-08T05:06:39;35.27;;;32.20;;
20443;SDS011;10381;53.730;10.010;2023-01-08T05:10:39;35.63;;;32.45;;
20443;SDS011;10381;53.730;10.010;2023-01-08T05:14:39;35.70;;;32.50;;
20443;SDS011;10381;53.730;10.010;2023-01-08T05:18:40;35.43;;;32.27;;
20443;SDS011;10381;53.730;10.010;2023-01-08T05:22:40;37.80;;;34.27;;
20443;SDS011;10381;53.730;10.010;2023-01-08T05:26:40;40.03;;;36.47;;
20443;SDS011;10381;53.730;10.010;2023-01-08T05:30:41;40.77;;;37.07;;
20443;SDS011;10381;53.730;10.010;2023-01-08T05:34:41;41.47;;;37.83;;
20443;SDS011;10381;53.730;10.010;2023-01-08T05:38:41;42.20;;;38.42;;
20443;SDS011;10381;53.730;10.010;2023-01-08T05:42:42;47.50;;;43.22;;
20443;SDS011;10381;53.730;10.010;2023-01-08T05:46:42;49.03;;;44.57;;
20443;SDS011;10381;53.730;10.010;2023-01-08T05:50:42;47.70;;;43.40;;
20443;SDS011;10381;53.730;10.010;2023-01-08T05:54:43;52.97;;;48.38;;
20443;SDS011;10381;53.730;10.010;2023-01-08T05:58:43;54.13;;;49.53;;
20443;SDS011;10381;53.730;10.010;2023-01-08T06:02:46;57.75;;;52.63;;
20443;SDS011;10381;53.730;10.010;2023-01-08T06:06:47;56.50;;;51.42;;
20443;SDS011;10381;53.730;10.010;2023-01-08T06:10:47;58.03;;;52.73;;
20443;SDS011;10381;53.730;10.010;2023-01-08T06:14:47;59.53;;;54.13;;
20443;SDS011;10381;53.730;10.010;2023-01-08T06:18:47;64.37;;;58.60;;
20443;SDS011;10381;53.730;10.010;2023-01-08T06:22:48;64.03;;;58.22;;
20443;SDS011;10381;53.730;10.010;2023-01-08T06:26:48;66.60;;;60.90;;
20443;SDS011;10381;53.730;10.010;2023-01-08T06:30:48;60.70;;;55.40;;
20443;SDS011;10381;53.730;10.010;2023-01-08T06:34:49;64.47;;;58.85;;
20443;SDS011;10381;53.730;10.010;2023-01-08T06:38:49;61.87;;;56.13;;
20443;SDS011;10381;53.730;10.010;2023-01-08T06:42:49;67.37;;;61.57;;
20443;SDS011;10381;53.730;10.010;2023-01-08T06:46:50;70.28;;;64.10;;
20443;SDS011;10381;53.730;10.010;2023-01-08T06:50:50;71.80;;;64.90;;
20443;SDS011;10381;53.730;10.010;2023-01-08T06:54:51;68.68;;;62.65;;
20443;SDS011;10381;53.730;10.010;2023-01-08T06:58:51;67.93;;;61.87;;
20443;SDS011;10381;53.730;10.010;2023-01-08T07:02:52;71.97;;;65.87;;
20443;SDS011;10381;53.730;10.010;2023-01-08T07:06:53;80.90;;;73.38;;
20443;SDS011;10381;53.730;10.010;2023-01-08T07:10:53;70.23;;;64.03;;
20443;SDS011;10381;53.730;10.010;2023-01-08T07:14:53;81.30;;;74.28;;
20443;SDS011;10381;53.730;10.010;2023-01-08T07:18:53;77.53;;;70.60;;
20443;SDS011;10381;53.730;10.010;2023-01-08T07:22:54;80.43;;;73.23;;
20443;SDS011;10381;53.730;10.010;2023-01-08T07:26:54;86.07;;;77.87;;
20443;SDS011;10381;53.730;10.010;2023-01-08T07:30:54;79.10;;;72.30;;
20443;SDS011;10381;53.730;10.010;2023-01-08T07:34:55;77.03;;;70.50;;
20443;SDS011;10381;53.730;10.010;2023-01-08T07:38:58;80.20;;;73.20;;
20443;SDS011;10381;53.730;10.010;2023-01-08T07:42:58;76.43;;;69.73;;
20443;SDS011;10381;53.730;10.010;2023-01-08T07:47:00;81.25;;;74.00;;
20443;SDS011;10381;53.730;10.010;2023-01-08T07:51:04;79.87;;;72.97;;
20443;SDS011;10381;53.730;10.010;2023-01-08T07:55:05;80.85;;;73.80;;
20443;SDS011;10381;53.730;10.010;2023-01-08T07:59:06;82.40;;;74.82;;
20443;SDS011;10381;53.730;10.010;2023-01-08T08:03:07;76.32;;;69.50;;
20443;SDS011;10381;53.730;10.010;2023-01-08T08:07:10;77.72;;;70.78;;
20443;SDS011;10381;53.730;10.010;2023-01-08T08:11:10;74.82;;;68.05;;
20443;SDS011;10381;53.730;10.010;2023-01-08T08:15:10;70.33;;;63.87;;
20443;SDS011;10381;53.730;10.010;2023-01-08T08:19:11;67.27;;;61.20;;
20443;SDS011;10381;53.730;10.010;2023-01-08T08:23:12;74.18;;;67.55;;
20443;SDS011;10381;53.730;10.010;2023-01-08T08:27:13;76.53;;;69.72;;
20443;SDS011;10381;53.730;10.010;2023-01-08T08:31:14;90.67;;;82.60;;
20443;SDS011;10381;53.730;10.010;2023-01-08T08:35:14;87.38;;;79.65;;
20443;SDS011;10381;53.730;10.010;2023-01-08T08:39:15;92.78;;;84.32;;
20443;SDS011;10381;53.730;10.010;2023-01-08T08:43:15;94.22;;;85.45;;
20443;SDS011;10381;53.730;10.010;2023-01-08T08:47:16;95.47;;;85.80;;
20443;SDS011;10381;53.730;10.010;2023-01-08T08:51:16;101.50;;;92.13;;
20443;SDS011;10381;53.730;10.010;2023-01-08T08:55:16;98.67;;;89.27;;
20443;SDS011;10381;53.730;10.010;2023-01-08T08:59:17;106.60;;;96.40;;
20443;SDS011;10381;53.730;10.010;2023-01-08T09:03:17;103.23;;;93.10;;
20443;SDS011;10381;53.730;10.010;2023-01-08T09:07:18;103.20;;;93.32;;
20443;SDS011;10381;53.730;10.010;2023-01-08T09:11:18;112.07;;;101.03;;
20443;SDS011;10381;53.730;10.010;2023-01-08T09:15:18;124.63;;;111.83;;
20443;SDS011;10381;53.730;10.010;2023-01-08T09:19:18;151.03;;;136.03;;
20443;SDS011;10381;53.730;10.010;2023-01-08T09:23:19;212.67;;;191.70;;
20443;SDS011;10381;53.730;10.010;2023-01-08T09:27:19;288.00;;;259.67;;
20443;SDS011;10381;53.730;10.010;2023-01-08T09:31:19;572.83;;;518.63;;
20443;SDS011;10381;53.730;10.010;2023-01-08T09:35:20;801.00;;;728.85;;
20443;SDS011;10381;53.730;10.010;2023-01-08T09:39:21;880.20;;;799.50;;
20443;SDS011;10381;53.730;10.010;2023-01-08T09:43:21;956.92;;;864.20;;
20443;SDS011;10381;53.730;10.010;2023-01-08T09:47:25;984.25;;;879.78;;
20443;SDS011;10381;53.730;10.010;2023-01-08T09:51:34;977.15;;;872.08;;
20443;SDS011;10381;53.730;10.010;2023-01-08T09:55:36;977.30;;;872.70;;
20443;SDS011;10381;53.730;10.010;2023-01-08T09:59:38;974.30;;;871.75;;
20443;SDS011;10381;53.730;10.010;2023-01-08T10:03:40;1051.00;;;897.60;;
20443;SDS011;10381;53.730;10.010;2023-01-08T10:07:44;1038.18;;;889.30;;
20443;SDS011;10381;53.730;10.010;2023-01-08T10:11:45;1086.25;;;904.03;;
20443;SDS011;10381;53.730;10.010;2023-01-08T10:15:47;1054.65;;;895.95;;
20443;SDS011;10381;53.730;10.010;2023-01-08T10:19:48;1053.88;;;900.42;;
20443;SDS011;10381;53.730;10.010;2023-01-08T10:23:49;1005.40;;;888.38;;
20443;SDS011;10381;53.730;10.010;2023-01-08T10:31:53;951.88;;;858.97;;
20443;SDS011;10381;53.730;10.010;2023-01-08T10:35:59;955.65;;;861.35;;
20443;SDS011;10381;53.730;10.010;2023-01-08T10:40:06;919.97;;;831.03;;
20443;SDS011;10381;53.730;10.010;2023-01-08T10:44:21;839.10;;;760.65;;
20443;SDS011;10381;53.730;10.010;2023-01-08T10:48:24;826.58;;;748.80;;
20443;SDS011;10381;53.730;10.010;2023-01-08T10:52:31;590.60;;;533.50;;
20443;SDS011;10381;53.730;10.010;2023-01-08T10:56:40;462.35;;;417.75;;
20443;SDS011;10381;53.730;10.010;2023-01-08T11:00:42;422.25;;;384.92;;
20443;SDS011;10381;53.730;10.010;2023-01-08T11:04:42;360.92;;;330.02;;
20443;SDS011;10381;53.730;10.010;2023-01-08T11:08:49;266.73;;;244.90;;
20443;SDS011;10381;53.730;10.010;2023-01-08T11:12:58;211.13;;;192.43;;
20443;SDS011;10381;53.730;10.010;2023-01-08T11:17:00;157.85;;;;;
20443;SDS011;10381;53.730;10.010;2023-01-08T11:21:18;128.27;;;117.22;;
20443;SDS011;10381;53.730;10.010;2023-01-08T11:25:25;110.68;;;101.38;;
20443;SDS011;10381;53.730;10.010;2023-01-08T11:34:04;89.10;;;81.57;;
20443;SDS011;10381;53.730;10.010;2023-01-08T11:38:12;94.47;;;86.50;;
20443;SDS011;10381;53.730;10.010;2023-01-08T11:42:16;78.17;;;71.50;;
20443;SDS011;10381;53.730;10.010;2023-01-08T11:55:06;71.90;;;65.93;;
20443;SDS011;10381;53.730;10.010;2023-01-08T12:03:28;50.05;;;45.95;;
20443;SDS011;10381;53.730;10.010;2023-01-08T12:16:34;41.42;;;37.95;;
20443;SDS011;10381;53.730;10.010;2023-01-08T12:20:52;34.33;;;31.33;;
20443;SDS011;10381;53.730;10.010;2023-01-08T12:25:01;29.55;;;25.17;;
20443;SDS011;10381;53.730;10.010;2023-01-08T12:30:09;21.90;;;20.00;;
20443;SDS011;10381;53.730;10.010;2023-01-08T12:34:10;18.75;;;16.92;;
20443;SDS011;10381;53.730;10.010;2023-01-08T12:38:25;19.60;;;17.80;;
20443;SDS011;10381;53.730;10.010;2023-01-08T12:42:29;17.38;;;15.82;;
20443;SDS011;10381;53.730;10.010;2023-01-08T12:46:34;16.75;;;15.10;;
20443;SDS011;10381;53.730;10.010;2023-01-08T12:54:55;19.70;;;14.23;;
20443;SDS011;10381;53.730;10.010;2023-01-08T12:59:21;17.38;;;15.65;;
20443;SDS011;10381;53.730;10.010;2023-01-08T13:03:24;14.90;;;13.60;;
20443;SDS011;10381;53.730;10.010;2023-01-08T13:07:28;15.55;;;13.90;;
20443;SDS011;10381;53.730;10.010;2023-01-08T13:11:37;20.08;;;13.27;;
20443;SDS011;10381;53.730;10.010;2023-01-08T13:15:41;14.63;;;13.32;;
20443;SDS011;10381;53.730;10.010;2023-01-08T13:19:42;14.05;;;12.95;;
20443;SDS011;10381;53.730;10.010;2023-01-08T13:23:44;15.15;;;13.40;;
20443;SDS011;10381;53.730;10.010;2023-01-08T13:27:45;16.52;;;15.00;;
20443;SDS011;10381;53.730;10.010;2023-01-08T13:31:46;17.17;;;15.75;;
20443;SDS011;10381;53.730;10.010;2023-01-08T13:35:46;18.55;;;16.80;;
20443;SDS011;10381;53.730;10.010;2023-01-08T13:39:46;19.33;;;17.60;;
20443;SDS011;10381;53.730;10.010;2023-01-08T13:43:46;19.53;;;17.37;;
20443;SDS011;10381;53.730;10.010;2023-01-08T13:47:48;17.98;;;16.20;;
20443;SDS011;10381;53.730;10.010;2023-01-08T13:51:48;18.67;;;17.08;;
20443;SDS011;10381;53.730;10.010;2023-01-08T13:55:56;17.85;;;16.35;;
20443;SDS011;10381;53.730;10.010;2023-01-08T14:00:05;17.83;;;16.42;;
20443;SDS011;10381;53.730;10.010;2023-01-08T14:04:07;18.23;;;16.08;;
20443;SDS011;10381;53.730;10.010;2023-01-08T14:08:14;24.10;;;19.40;;
20443;SDS011;10381;53.730;10.010;2023-01-08T14:12:21;20.95;;;18.85;;
20443;SDS011;10381;53.730;10.010;2023-01-08T14:16:23;19.17;;;17.25;;
20443;SDS011;10381;53.730;10.010;2023-01-08T14:24:38;17.52;;;15.95;;
20443;SDS011;10381;53.730;10.010;2023-01-08T14:28:49;18.08;;;15.52;;
20443;SDS011;10381;53.730;10.010;2023-01-08T14:32:50;18.55;;;16.65;;
20443;SDS011;10381;53.730;10.010;2023-01-08T14:36:52;20.10;;;15.15;;
20443;SDS011;10381;53.730;10.010;2023-01-08T14:41:12;16.95;;;15.02;;
20443;SDS011;10381;53.730;10.010;2023-01-08T14:49:29;23.77;;;16.90;;
20443;SDS011;10381;53.730;10.010;2023-01-08T14:53:34;16.42;;;14.85;;
20443;SDS011;10381;53.730;10.010;2023-01-08T14:57:37;21.75;;;14.60;;
20443;SDS011;10381;53.730;10.010;2023-01-08T15:01:37;14.07;;;12.87;;
20443;SDS011;10381;53.730;10.010;2023-01-08T15:05:46;16.25;;;14.95;;
20443;SDS011;10381;53.730;10.010;2023-01-08T15:09:57;24.98;;;17.02;;
20443;SDS011;10381;53.730;10.010;2023-01-08T15:14:00;19.98;;;18.13;;
20443;SDS011;10381;53.730;10.010;2023-01-08T15:18:12;18.85;;;17.35;;
20443;SDS011;10381;53.730;10.010;2023-01-08T15:22:14;22.15;;;20.17;;
20443;SDS011;10381;53.730;10.010;2023-01-08T15:26:19;24.65;;;21.38;;
20443;SDS011;10381;53.730;10.010;2023-01-08T15:30:24;26.00;;;23.45;;
20443;SDS011;10381;53.730;10.010;2023-01-08T15:34:35;32.75;;;24.45;;
20443;SDS011;10381;53.730;10.010;2023-01-08T15:38:35;29.90;;;27.00;;
20443;SDS011;10381;53.730;10.010;2023-01-08T15:42:36;32.73;;;29.53;;
20443;SDS011;10381;53.730;10.010;2023-01-08T15:46:55;36.33;;;33.10;;
20443;SDS011;10381;53.730;10.010;2023-01-08T15:50:55;39.80;;;36.30;;
20443;SDS011;10381;53.730;10.010;2023-01-08T15:54:57;41.78;;;37.38;;
20443;SDS011;10381;53.730;10.010;2023-01-08T15:58:59;48.30;;;43.90;;
20443;SDS011;10381;53.730;10.010;2023-01-08T16:02:59;53.03;;;47.78;;
20443;SDS011;10381;53.730;10.010;2023-01-08T16:07:02;58.85;;;53.47;;
20443;SDS011;10381;53.730;10.010;2023-01-08T16:11:02;61.60;;;55.77;;
20443;SDS011;10381;53.730;10.010;2023-01-08T16:15:03;71.38;;;59.17;;
20443;SDS011;10381;53.730;10.010;2023-01-08T16:19:06;68.53;;;61.97;;
20443;SDS011;10381;53.730;10.010;2023-01-08T16:23:07;73.13;;;66.32;;
20443;SDS011;10381;53.730;10.010;2023-01-08T16:27:07;73.03;;;66.33;;
20443;SDS011;10381;53.730;10.010;2023-01-08T16:31:09;74.63;;;66.43;;
20443;SDS011;10381;53.730;10.010;2023-01-08T16:35:09;73.60;;;66.65;;
20443;SDS011;10381;53.730;10.010;2023-01-08T16:39:10;75.85;;;68.85;;
20443;SDS011;10381;53.730;10.010;2023-01-08T16:43:10;66.37;;;60.07;;
20443;SDS011;10381;53.730;10.010;2023-01-08T16:47:10;65.63;;;59.80;;
20443;SDS011;10381;53.730;10.010;2023-01-08T16:51:11;60.27;;;53.77;;
20443;SDS011;10381;53.730;10.010;2023-01-08T16:55:11;56.72;;;51.72;;
20443;SDS011;10381;53.730;10.010;2023-01-08T16:59:12;52.07;;;47.47;;
20443;SDS011;10381;53.730;10.010;2023-01-08T17:03:12;51.92;;;47.28;;
20443;SDS011;10381;53.730;10.010;2023-01-08T17:07:12;48.27;;;43.87;;
20443;SDS011;10381;53.730;10.010;2023-01-08T17:11:17;47.83;;;43.13;;
20443;SDS011;10381;53.730;10.010;2023-01-08T17:15:18;46.10;;;42.17;;
20443;SDS011;10381;53.730;10.010;2023-01-08T17:19:18;45.07;;;40.80;;
20443;SDS011;10381;53.730;10.010;2023-01-08T17:23:19;38.85;;;34.88;;
20443;SDS011;10381;53.730;10.010;2023-01-08T17:27:19;38.83;;;35.17;;
20443;SDS011;10381;53.730;10.010;2023-01-08T17:31:21;42.65;;;38.78;;
20443;SDS011;10381;53.730;10.010;2023-01-08T17:35:21;41.28;;;37.67;;
20443;SDS011;10381;53.730;10.010;2023-01-08T17:39:22;38.63;;;34.60;;
20443;SDS011;10381;53.730;10.010;2023-01-08T17:43:22;45.90;;;41.07;;
20443;SDS011;10381;53.730;10.010;2023-01-08T17:47:23;48.10;;;43.83;;
20443;SDS011;10381;53.730;10.010;2023-01-08T17:51:24;64.57;;;58.88;;
20443;SDS011;10381;53.730;10.010;2023-01-08T17:55:25;99.57;;;90.57;;
20443;SDS011;10381;53.730;10.010;2023-01-08T17:59:25;408.70;;;372.95;;
20443;SDS011;10381;53.730;10.010;2023-01-08T18:03:25;705.42;;;639.05;;
20443;SDS011;10381;53.730;10.010;2023-01-08T18:07:26;874.70;;;792.40;;
20443;SDS011;10381;53.730;10.010;2023-01-08T18:11:26;943.43;;;852.73;;
20443;SDS011;10381;53.730;10.010;2023-01-08T18:15:26;989.40;;;888.83;;
20443;SDS011;10381;53.730;10.010;2023-01-08T18:19:27;1002.63;;;896.95;;
20443;SDS011;10381;53.730;10.010;2023-01-08T18:23:27;1101.75;;;906.38;;
20443;SDS011;10381;53.730;10.010;2023-01-08T18:27:27;1166.75;;;912.05;;
20443;SDS011;10381;53.730;10.010;2023-01-08T18:31:28;1154.23;;;905.10;;
20443;SDS011;10381;53.730;10.010;2023-01-08T18:35:28;1094.22;;;897.95;;
20443;SDS011;10381;53.730;10.010;2023-01-08T18:39:30;1083.40;;;899.25;;
20443;SDS011;10381;53.730;10.010;2023-01-08T18:43:31;1080.18;;;899.33;;
20443;SDS011;10381;53.730;10.010;2023-01-08T18:47:34;1101.03;;;892.05;;
20443;SDS011;10381;53.730;10.010;2023-01-08T18:51:34;1097.27;;;888.93;;
20443;SDS011;10381;53.730;10.010;2023-01-08T18:55:35;1109.33;;;892.03;;
20443;SDS011;10381;53.730;10.010;2023-01-08T18:59:36;1093.50;;;889.95;;
20443;SDS011;10381;53.730;10.010;2023-01-08T19:03:36;1077.18;;;886.63;;
20443;SDS011;10381;53.730;10.010;2023-01-08T19:07:37;1070.27;;;891.60;;
20443;SDS011;10381;53.730;10.010;2023-01-08T19:11:37;1110.63;;;897.80;;
20443;SDS011;10381;53.730;10.010;2023-01-08T19:15:37;1059.38;;;895.67;;
20443;SDS011;10381;53.730;10.010;2023-01-08T19:19:39;1048.65;;;902.45;;
20443;SDS011;10381;53.730;10.010;2023-01-08T19:23:39;1022.10;;;908.35;;
20443;SDS011;10381;53.730;10.010;2023-01-08T19:27:40;1010.95;;;908.17;;
20443;SDS011;10381;53.730;10.010;2023-01-08T19:31:40;1005.00;;;901.60;;
20443;SDS011;10381;53.730;10.010;2023-01-08T19:35:40;1009.83;;;903.70;;
20443;SDS011;10381;53.730;10.010;2023-01-08T19:39:41;1009.03;;;903.43;;
20443;SDS011;10381;53.730;10.010;2023-01-08T19:43:41;993.17;;;894.23;;
20443;SDS011;10381;53.730;10.010;2023-01-08T19:47:41;1002.20;;;899.70;;
20443;SDS011;10381;53.730;10.010;2023-01-08T19:51:41;1001.93;;;898.97;;
20443;SDS011;10381;53.730;10.010;2023-01-08T19:55:42;1010.78;;;901.75;;
20443;SDS011;10381;53.730;10.010;2023-01-08T19:59:44;1008.00;;;897.30;;
20443;SDS011;10381;53.730;10.010;2023-01-08T20:03:45;998.65;;;888.45;;
20443;SDS011;10381;53.730;10.010;2023-01-08T20:07:45;1002.20;;;888.80;;
20443;SDS011;10381;53.730;10.010;2023-01-08T20:11:46;1004.07;;;883.00;;
20443;SDS011;10381;53.730;10.010;2023-01-08T20:15:53;1001.77;;;884.07;;
20443;SDS011;10381;53.730;10.010;2023-01-08T20:19:55;997.40;;;881.53;;
20443;SDS011;10381;53.730;10.010;2023-01-08T20:23:57;996.23;;;877.10;;
20443;SDS011;10381;53.730;10.010;2023-01-08T20:28:04;1002.20;;;876.08;;
20443;SDS011;10381;53.730;10.010;2023-01-08T20:32:04;1031.70;;;881.00;;
20443;SDS011;10381;53.730;10.010;2023-01-08T20:36:05;993.58;;;864.53;;
20443;SDS011;10381;53.730;10.010;2023-01-08T20:40:17;976.90;;;854.35;;
20443;SDS011;10381;53.730;10.010;2023-01-08T20:44:17;976.00;;;852.75;;
20443;SDS011;10381;53.730;10.010;2023-01-08T20:48:17;982.97;;;850.75;;
20443;SDS011;10381;53.730;10.010;2023-01-08T20:52:17;964.53;;;847.72;;
20443;SDS011;10381;53.730;10.010;2023-01-08T20:56:18;944.28;;;835.53;;
20443;SDS011;10381;53.730;10.010;2023-01-08T21:00:18;929.53;;;826.22;;
20443;SDS011;10381;53.730;10.010;2023-01-08T21:04:20;910.90;;;811.15;;
20443;SDS011;10381;53.730;10.010;2023-01-08T21:08:22;897.25;;;800.90;;
20443;SDS011;10381;53.730;10.010;2023-01-08T21:12:22;885.60;;;789.87;;
20443;SDS011;10381;53.730;10.010;2023-01-08T21:16:24;872.97;;;779.50;;
20443;SDS011;10381;53.730;10.010;2023-01-08T21:20:27;867.05;;;775.88;;
20443;SDS011;10381;53.730;10.010;2023-01-08T21:24:27;862.30;;;771.37;;
20443;SDS011;10381;53.730;10.010;2023-01-08T21:28:27;865.03;;;773.77;;
20443;SDS011;10381;53.730;10.010;2023-01-08T21:32:28;851.65;;;762.72;;
20443;SDS011;10381;53.730;10.010;2023-01-08T21:36:29;838.22;;;752.60;;
20443;SDS011;10381;53.730;10.010;2023-01-08T21:40:30;823.08;;;740.65;;
20443;SDS011;10381;53.730;10.010;2023-01-08T21:44:31;806.60;;;727.65;;
20443;SDS011;10381;53.730;10.010;2023-01-08T21:48:50;794.00;;;717.05;;
20443;SDS011;10381;53.730;10.010;2023-01-08T21:52:51;781.17;;;706.78;;
20443;SDS011;10381;53.730;10.010;2023-01-08T21:57:10;775.75;;;701.55;;
20443;SDS011;10381;53.730;10.010;2023-01-08T22:01:10;763.60;;;691.28;;
20443;SDS011;10381;53.730;10.010;2023-01-08T22:05:10;750.55;;;679.22;;
20443;SDS011;10381;53.730;10.010;2023-01-08T22:09:11;757.33;;;685.42;;
20443;SDS011;10381;53.730;10.010;2023-01-08T22:13:11;733.60;;;664.23;;
20443;SDS011;10381;53.730;10.010;2023-01-08T22:17:11;718.75;;;651.13;;
20443;SDS011;10381;53.730;10.010;2023-01-08T22:21:12;701.23;;;635.60;;
20443;SDS011;10381;53.730;10.010;2023-01-08T22:25:12;699.42;;;634.00;;
20443;SDS011;10381;53.730;10.010;2023-01-08T22:29:12;696.17;;;630.83;;
20443;SDS011;10381;53.730;10.010;2023-01-08T22:33:12;679.92;;;616.05;;
20443;SDS011;10381;53.730;10.010;2023-01-08T22:37:13;685.27;;;621.07;;
20443;SDS011;10381;53.730;10.010;2023-01-08T22:41:21;677.25;;;613.55;;
20443;SDS011;10381;53.730;10.010;2023-01-08T22:45:23;676.42;;;612.83;;
20443;SDS011;10381;53.730;10.010;2023-01-08T22:49:23;665.33;;;601.97;;
20443;SDS011;10381;53.730;10.010;2023-01-08T22:53:23;689.17;;;623.43;;
20443;SDS011;10381;53.730;10.010;2023-01-08T22:57:23;689.73;;;624.07;;
20443;SDS011;10381;53.730;10.010;2023-01-08T23:01:24;699.47;;;632.30;;
20443;SDS011;10381;53.730;10.010;2023-01-08T23:05:26;695.05;;;628.85;;
20443;SDS011;10381;53.730;10.010;2023-01-08T23:09:26;709.27;;;641.37;;
20443;SDS011;10381;53.730;10.010;2023-01-08T23:13:26;715.67;;;646.90;;
20443;SDS011;10381;53.730;10.010;2023-01-08T23:17:27;730.97;;;660.63;;
20443;SDS011;10381;53.730;10.010;2023-01-08T23:21:27;730.80;;;660.13;;
20443;SDS011;10381;53.730;10.010;2023-01-08T23:25:28;726.72;;;656.47;;
20443;SDS011;10381;53.730;10.010;2023-01-08T23:29:30;733.28;;;662.42;;
20443;SDS011;10381;53.730;10.010;2023-01-08T23:33:31;736.13;;;664.58;;
20443;SDS011;10381;53.730;10.010;2023-01-08T23:37:32;751.97;;;678.83;;
20443;SDS011;10381;53.730;10.010;2023-01-08T23:41:33;753.28;;;679.42;;
20443;SDS011;10381;53.730;10.010;2023-01-08T23:45:34;740.78;;;667.88;;
20443;SDS011;10381;53.730;10.010;2023-01-08T23:49:35;751.83;;;678.25;;
20443;SDS011;10381;53.730;10.010;2023-01-08T23:53:35;760.67;;;685.05;;
20443;SDS011;10381;53.730;10.010;2023-01-08T23:57:35;765.03;;;689.63;;
